Time;durP1;ratioP1;P1;durP2;ratioP2;P2;SDS_P1;SDS_P2;PMS_P1;PMS_P2;Temp;Humidity;BMP_temperature;BMP_pressure;BME280_temperature;BME280_humidity;BME280_pressure;Samples;Min_cycle;Max_cycle;Signal;HPM_P1;HPM_P2
2022/05/04 00:01:06;;;;;;;10.70;6.60;;;;;;;12.22;47.71;100557.82;109414;1261;23668;-78
2022/05/04 00:03:39;;;;;;;10.90;7.20;;;;;;;12.22;47.70;100558.91;109621;1263;22254;-76
2022/05/04 00:06:10;;;;;;;9.60;7.10;;;;;;;12.19;47.75;100559.43;109745;1263;23441;-76
2022/05/04 00:08:39;;;;;;;10.90;7.30;;;;;;;12.18;47.92;100559.27;109726;1263;24291;-77
2022/05/04 00:11:08;;;;;;;12.50;7.00;;;;;;;12.17;47.98;100563.05;109818;1257;23017;-77
2022/05/04 00:13:37;;;;;;;14.10;7.30;;;;;;;12.15;48.04;100561.50;110135;1257;24431;-77
2022/05/04 00:16:06;;;;;;;9.30;6.70;;;;;;;12.15;48.17;100560.14;110287;1257;22044;-78
2022/05/04 00:18:35;;;;;;;12.40;7.90;;;;;;;12.14;48.32;100563.19;110417;1254;22016;-77
2022/05/04 00:21:07;;;;;;;11.40;7.10;;;;;;;12.12;48.28;100564.45;110739;1251;23178;-78
2022/05/04 00:23:36;;;;;;;9.50;8.30;;;;;;;12.09;48.38;100561.45;110875;1250;24145;-78
2022/05/04 00:26:05;;;;;;;11.90;8.40;;;;;;;12.07;48.62;100563.16;110790;1252;22716;-77
2022/05/04 00:28:35;;;;;;;10.50;8.00;;;;;;;12.05;48.70;100564.02;110596;1254;25043;-77
2022/05/04 00:31:04;;;;;;;12.00;7.90;;;;;;;12.06;48.91;100568.39;110761;1253;23570;-79
2022/05/04 00:33:33;;;;;;;9.30;7.80;;;;;;;12.07;49.05;100568.79;109998;1257;22030;-79
2022/05/04 00:36:02;;;;;;;12.30;7.60;;;;;;;12.08;49.06;100571.16;110227;1260;21981;-79
2022/05/04 00:38:31;;;;;;;9.10;6.30;;;;;;;12.08;49.15;100570.77;110239;1257;23685;-78
2022/05/04 00:41:00;;;;;;;15.90;9.50;;;;;;;12.06;49.23;100571.53;110292;1257;22757;-78
2022/05/04 00:43:29;;;;;;;11.80;8.50;;;;;;;12.04;49.30;100572.14;110241;1257;22071;-78
2022/05/04 00:45:58;;;;;;;9.40;7.70;;;;;;;12.02;49.63;100572.31;110284;1257;23706;-79
2022/05/04 00:48:28;;;;;;;10.90;8.30;;;;;;;12.03;49.77;100579.16;110285;1257;24139;-78
2022/05/04 00:50:57;;;;;;;11.10;8.10;;;;;;;11.99;49.86;100577.81;109503;1260;21969;-79
2022/05/04 00:53:27;;;;;;;12.70;8.20;;;;;;;11.95;50.05;100580.58;109993;1258;23578;-78
2022/05/04 00:55:59;;;;;;;11.00;8.70;;;;;;;11.94;50.35;100577.52;109739;1257;22090;-77
2022/05/04 01:01:18;;;;;;;10.00;7.50;;;;;;;11.92;50.60;100583.67;110273;1257;22079;-78
2022/05/04 01:03:48;;;;;;;12.20;8.50;;;;;;;11.91;50.86;100583.27;110257;1258;23786;-77
2022/05/04 01:06:17;;;;;;;11.30;7.80;;;;;;;11.91;50.85;100583.30;110330;1257;21975;-77
2022/05/04 01:08:49;;;;;;;8.80;7.70;;;;;;;11.88;51.05;100585.50;110104;1253;21958;-77
2022/05/04 01:11:19;;;;;;;15.40;8.10;;;;;;;11.89;51.26;100588.25;110586;1253;23684;-77
2022/05/04 01:14:06;;;;;;;9.70;7.10;;;;;;;11.90;51.20;100591.13;110838;1252;21959;-77
2022/05/04 01:16:39;;;;;;;10.90;8.10;;;;;;;11.88;51.31;100586.30;110544;1254;23722;-81
2022/05/04 01:19:10;;;;;;;11.80;9.30;;;;;;;11.86;51.33;100589.54;110713;1254;23705;-81
2022/05/04 01:21:39;;;;;;;15.80;7.90;;;;;;;11.83;51.48;100590.83;110597;1254;23764;-77
2022/05/04 01:24:09;;;;;;;15.90;9.20;;;;;;;11.82;51.61;100596.05;110513;1254;22027;-77
2022/05/04 01:26:39;;;;;;;9.20;8.30;;;;;;;11.83;51.72;100597.80;110840;1252;21980;-78
2022/05/04 01:29:09;;;;;;;12.60;9.40;;;;;;;11.83;51.84;100601.28;110537;1254;22957;-78
2022/05/04 01:31:38;;;;;;;11.90;9.50;;;;;;;11.83;51.86;100602.57;110558;1254;22195;-78
2022/05/04 01:34:08;;;;;;;15.80;9.30;;;;;;;11.83;52.08;100606.01;110709;1254;23571;-78
2022/05/04 01:36:37;;;;;;;13.70;10.40;;;;;;;11.84;52.10;100604.52;110495;1254;22045;-78
2022/05/04 01:39:06;;;;;;;11.00;8.80;;;;;;;11.83;52.08;100606.23;110643;1253;22384;-78
2022/05/04 01:44:22;;;;;;;16.80;9.60;;;;;;;11.79;52.22;100607.14;110600;1254;21972;-78
2022/05/04 01:46:51;;;;;;;14.70;9.70;;;;;;;11.76;52.38;100607.47;110538;1255;21987;-78
2022/05/04 01:49:20;;;;;;;15.30;9.60;;;;;;;11.73;52.57;100605.16;110717;1253;21954;-79
2022/05/04 01:51:49;;;;;;;13.10;9.30;;;;;;;11.73;52.67;100605.34;110300;1257;22744;-78
2022/05/04 01:54:18;;;;;;;10.40;9.40;;;;;;;11.73;52.81;100604.80;110201;1257;21971;-77
2022/05/04 01:56:47;;;;;;;10.50;8.70;;;;;;;11.73;52.97;100602.73;110218;1257;22281;-78
2022/05/04 01:59:16;;;;;;;13.30;8.80;;;;;;;11.71;52.97;100602.52;109728;1262;23611;-77
2022/05/04 02:01:48;;;;;;;11.70;8.80;;;;;;;11.66;53.15;100606.77;109277;1263;22116;-78
2022/05/04 02:04:18;;;;;;;11.90;9.20;;;;;;;11.63;53.38;100607.38;109347;1266;22014;-78
2022/05/04 02:06:48;;;;;;;11.60;7.90;;;;;;;11.61;53.56;100611.44;109256;1264;23085;-78
2022/05/04 02:09:20;;;;;;;9.80;8.00;;;;;;;11.62;53.82;100611.36;109592;1260;21982;-78
2022/05/04 02:11:49;;;;;;;13.00;8.50;;;;;;;11.64;53.97;100609.49;109997;1260;21978;-78
2022/05/04 02:14:20;;;;;;;9.80;8.60;;;;;;;11.68;54.11;100610.70;110035;1257;23608;-79
2022/05/04 02:16:49;;;;;;;10.10;8.10;;;;;;;11.69;54.16;100608.48;110033;1254;22097;-78
2022/05/04 02:19:18;;;;;;;11.40;8.40;;;;;;;11.69;54.19;100607.89;110690;1253;24311;-77
2022/05/04 02:21:47;;;;;;;11.10;8.70;;;;;;;11.71;54.32;100608.02;110685;1254;23094;-77
2022/05/04 02:24:16;;;;;;;10.90;8.70;;;;;;;11.71;54.29;100606.59;110336;1257;24294;-79
2022/05/04 02:26:45;;;;;;;10.60;8.00;;;;;;;11.68;54.29;100606.73;110314;1257;21976;-79
2022/05/04 02:29:14;;;;;;;13.30;9.20;;;;;;;11.63;54.34;100609.25;110272;1259;22049;-78
2022/05/04 02:31:43;;;;;;;9.40;8.20;;;;;;;11.59;54.47;100606.51;110146;1257;23764;-79
2022/05/04 02:34:12;;;;;;;13.20;7.90;;;;;;;11.56;54.75;100612.11;110031;1258;21977;-79
2022/05/04 02:39:28;;;;;;;11.80;7.60;;;;;;;11.51;55.01;100616.22;110071;1260;21968;-78
2022/05/04 02:41:57;;;;;;;14.20;8.20;;;;;;;11.52;55.12;100615.25;110027;1254;23795;-77
2022/05/04 02:44:27;;;;;;;10.00;8.30;;;;;;;11.51;55.10;100613.02;110541;1254;22660;-77
2022/05/04 02:46:56;;;;;;;9.80;7.70;;;;;;;11.51;55.27;100613.38;110538;1254;22481;-77
2022/05/04 02:49:25;;;;;;;9.80;7.80;;;;;;;11.50;55.39;100614.07;110665;1252;21966;-77
2022/05/04 02:51:54;;;;;;;13.50;9.00;;;;;;;11.49;55.54;100615.43;110778;1252;23569;-79
2022/05/04 02:54:23;;;;;;;11.80;9.10;;;;;;;11.47;55.60;100617.17;110618;1254;22007;-78
2022/05/04 02:56:54;;;;;;;10.40;9.30;;;;;;;11.44;55.61;100619.43;110542;1254;22418;-78
2022/05/04 02:59:22;;;;;;;13.10;8.80;;;;;;;11.40;55.80;100621.67;110537;1254;22037;-78
2022/05/04 03:04:39;;;;;;;11.10;10.00;;;;;;;11.33;56.16;100627.70;110235;1257;21966;-78
2022/05/04 03:07:08;;;;;;;13.70;9.40;;;;;;;11.34;56.37;100622.74;110354;1257;22044;-78
2022/05/04 03:09:37;;;;;;;11.40;8.80;;;;;;;11.35;56.40;100623.11;110177;1257;22009;-76
2022/05/04 03:12:07;;;;;;;14.60;9.40;;;;;;;11.37;56.46;100624.86;110284;1256;23570;-77
2022/05/04 03:14:36;;;;;;;9.50;8.50;;;;;;;11.38;56.50;100625.02;110331;1257;22345;-78
2022/05/04 03:17:05;;;;;;;10.80;9.20;;;;;;;11.39;56.62;100626.71;110095;1258;21976;-81
2022/05/04 03:19:35;;;;;;;15.00;8.70;;;;;;;11.37;56.56;100628.14;109977;1257;21997;-83
2022/05/04 03:22:05;;;;;;;15.20;8.80;;;;;;;11.34;56.65;100626.15;109754;1257;22996;-81
2022/05/04 03:24:34;;;;;;;9.80;8.60;;;;;;;11.30;56.74;100629.19;110236;1257;22829;-81
2022/05/04 03:27:04;;;;;;;10.00;7.70;;;;;;;11.27;56.93;100631.64;110417;1257;23079;-78
2022/05/04 03:29:34;;;;;;;11.90;9.30;;;;;;;11.26;56.86;100631.11;110260;1257;21966;-78
2022/05/04 03:32:03;;;;;;;10.90;8.30;;;;;;;11.25;56.99;100632.98;110242;1258;22010;-79
2022/05/04 03:34:32;;;;;;;12.40;9.00;;;;;;;11.25;57.11;100632.63;110311;1257;21974;-79
2022/05/04 03:37:02;;;;;;;15.00;8.70;;;;;;;11.25;57.25;100628.16;110310;1256;21967;-78
2022/05/04 03:39:32;;;;;;;11.40;8.40;;;;;;;11.26;57.26;100635.80;110254;1254;21963;-80
2022/05/04 03:42:00;;;;;;;17.00;8.40;;;;;;;11.24;57.32;100637.35;110670;1254;24137;-78
2022/05/04 03:44:29;;;;;;;11.90;8.90;;;;;;;11.23;57.44;100640.62;110510;1252;21977;-78
2022/05/04 03:46:58;;;;;;;11.80;9.40;;;;;;;11.19;57.64;100639.60;110741;1253;21963;-78
2022/05/04 03:49:28;;;;;;;12.70;9.30;;;;;;;11.18;57.79;100642.69;110701;1253;21970;-77
2022/05/04 03:51:58;;;;;;;11.80;8.80;;;;;;;11.18;57.83;100647.30;110633;1253;22550;-77
2022/05/04 03:54:27;;;;;;;10.50;8.20;;;;;;;11.17;57.82;100647.40;110603;1254;21968;-77
2022/05/04 03:56:56;;;;;;;12.80;8.30;;;;;;;11.17;57.90;100646.41;110707;1253;21954;-77
2022/05/04 03:59:25;;;;;;;10.50;8.20;;;;;;;11.19;58.00;100649.65;110659;1254;21976;-76
2022/05/04 04:01:54;;;;;;;9.80;8.70;;;;;;;11.22;58.03;100654.81;110708;1251;22213;-76
2022/05/04 04:04:23;;;;;;;9.80;8.70;;;;;;;11.24;58.14;100655.63;110629;1251;22029;-77
2022/05/04 04:06:52;;;;;;;13.30;9.10;;;;;;;11.27;58.17;100658.51;110734;1252;22254;-77
2022/05/04 04:09:21;;;;;;;10.80;9.60;;;;;;;11.27;58.32;100657.23;110511;1251;22429;-76
2022/05/04 04:11:51;;;;;;;12.50;9.20;;;;;;;11.32;58.49;100661.16;110564;1251;23468;-76
2022/05/04 04:14:20;;;;;;;15.00;10.00;;;;;;;11.36;58.54;100659.84;110703;1251;22086;-77
2022/05/04 04:16:49;;;;;;;13.20;9.00;;;;;;;11.40;58.40;100663.15;110831;1251;22020;-77
2022/05/04 04:19:18;;;;;;;14.00;9.80;;;;;;;11.42;58.42;100668.52;110475;1256;22403;-77
2022/05/04 04:21:53;;;;;;;11.70;9.10;;;;;;;11.44;58.10;100666.38;110361;1257;23041;-77
2022/05/04 04:24:23;;;;;;;12.10;9.70;;;;;;;11.45;57.99;100669.63;110490;1256;23619;-77
2022/05/04 04:26:52;;;;;;;12.80;9.10;;;;;;;11.45;58.03;100671.08;110344;1257;21965;-77
2022/05/04 04:29:21;;;;;;;13.30;9.70;;;;;;;11.47;58.15;100671.18;110435;1256;21979;-78
2022/05/04 04:31:49;;;;;;;10.30;9.20;;;;;;;11.52;58.27;100674.13;110233;1257;21979;-78
2022/05/04 04:34:19;;;;;;;17.10;11.20;;;;;;;11.56;58.25;100675.35;110476;1256;23004;-77
2022/05/04 04:36:48;;;;;;;13.60;10.90;;;;;;;11.58;58.30;100680.61;109584;1260;23011;-78
2022/05/04 04:39:17;;;;;;;14.40;9.60;;;;;;;11.57;58.00;100686.30;110192;1257;22277;-76
2022/05/04 04:41:46;;;;;;;13.50;10.30;;;;;;;11.53;57.97;100683.88;109993;1257;23825;-77
2022/05/04 04:44:15;;;;;;;10.50;9.40;;;;;;;11.52;58.16;100684.15;110146;1257;23054;-77
2022/05/04 04:46:44;;;;;;;10.40;9.50;;;;;;;11.53;58.26;100679.44;109973;1257;23033;-77
2022/05/04 04:49:14;;;;;;;12.80;10.30;;;;;;;11.57;58.23;100674.19;110292;1257;23587;-77
2022/05/04 04:51:43;;;;;;;11.20;10.20;;;;;;;11.58;58.13;100675.41;109714;1257;21978;-78
2022/05/04 04:54:12;;;;;;;11.00;9.60;;;;;;;11.58;58.20;100675.74;110014;1253;21973;-77
2022/05/04 04:56:41;;;;;;;12.50;10.00;;;;;;;11.61;58.40;100680.24;110670;1254;21965;-77
2022/05/04 04:59:10;;;;;;;11.30;10.10;;;;;;;11.62;58.36;100682.92;110777;1252;21973;-78
2022/05/04 05:01:39;;;;;;;11.10;9.10;;;;;;;11.66;58.62;100680.56;110703;1252;22027;-77
2022/05/04 05:04:08;;;;;;;12.00;10.30;;;;;;;11.68;58.42;100678.58;110653;1253;21965;-78
2022/05/04 05:06:37;;;;;;;13.20;9.90;;;;;;;11.66;58.38;100679.84;110919;1250;24321;-78
2022/05/04 05:09:06;;;;;;;11.90;10.60;;;;;;;11.70;58.64;100686.11;110716;1251;23064;-78
2022/05/04 05:11:35;;;;;;;15.40;9.90;;;;;;;11.74;58.61;100689.02;110339;1257;23673;-78
2022/05/04 05:16:51;;;;;;;11.80;9.60;;;;;;;11.80;58.37;100687.30;109953;1257;23730;-78
2022/05/04 05:19:20;;;;;;;11.20;10.10;;;;;;;11.81;58.30;100686.34;109585;1263;22922;-77
2022/05/04 05:21:49;;;;;;;11.10;9.90;;;;;;;11.84;58.44;100683.45;109577;1263;22056;-78
2022/05/04 05:24:18;;;;;;;10.70;9.70;;;;;;;11.88;58.53;100682.33;109656;1261;24426;-78
2022/05/04 05:26:47;;;;;;;13.20;11.60;;;;;;;11.90;58.47;100680.30;109499;1263;24284;-77
2022/05/04 05:29:16;;;;;;;11.30;9.80;;;;;;;11.92;58.59;100681.63;109640;1257;22425;-77
2022/05/04 05:31:46;;;;;;;17.80;9.90;;;;;;;11.99;58.69;100683.57;110258;1259;21980;-77
2022/05/04 05:34:15;;;;;;;11.10;9.80;;;;;;;12.01;58.56;100680.44;110200;1256;22001;-78
2022/05/04 05:36:44;;;;;;;14.20;10.30;;;;;;;12.09;58.77;100680.66;110194;1253;21976;-77
2022/05/04 05:39:13;;;;;;;10.20;9.10;;;;;;;12.17;58.55;100681.28;110940;1250;23580;-78
2022/05/04 05:41:42;;;;;;;13.00;10.00;;;;;;;12.28;58.50;100687.41;110794;1251;22467;-78
2022/05/04 05:44:12;;;;;;;13.30;11.00;;;;;;;12.44;58.92;100688.55;110849;1251;21975;-78
2022/05/04 05:46:41;;;;;;;15.20;11.50;;;;;;;12.65;58.70;100694.33;110783;1251;21968;-77
2022/05/04 05:49:12;;;;;;;10.30;9.10;;;;;;;12.83;58.09;100700.84;110762;1250;23441;-77
2022/05/04 05:51:43;;;;;;;13.70;10.50;;;;;;;12.93;57.34;100698.20;110891;1250;23651;-77
2022/05/04 05:54:12;;;;;;;10.40;9.20;;;;;;;13.02;57.21;100701.53;110620;1253;21960;-79
2022/05/04 05:56:41;;;;;;;9.70;8.80;;;;;;;13.16;57.26;100709.55;110708;1253;23036;-78
2022/05/04 05:59:11;;;;;;;9.40;8.50;;;;;;;13.27;56.63;100710.98;110755;1253;21952;-82
2022/05/04 06:01:41;;;;;;;11.50;9.20;;;;;;;13.36;56.21;100707.63;110562;1252;22377;-82
2022/05/04 06:04:11;;;;;;;13.20;10.00;;;;;;;13.43;55.88;100702.60;110603;1254;21963;-82
2022/05/04 06:06:40;;;;;;;11.40;8.60;;;;;;;13.54;55.81;100702.05;110846;1252;21968;-81
2022/05/04 06:09:09;;;;;;;11.30;8.80;;;;;;;13.64;55.44;100697.52;110808;1252;23588;-82
2022/05/04 06:11:38;;;;;;;10.90;9.50;;;;;;;13.76;55.34;100699.13;110665;1251;22070;-82
2022/05/04 06:14:07;;;;;;;10.30;7.90;;;;;;;13.89;54.78;100703.14;110851;1252;24378;-82
2022/05/04 06:16:37;;;;;;;15.00;9.30;;;;;;;13.91;53.76;100702.82;110495;1257;21984;-83
2022/05/04 06:19:06;;;;;;;10.80;8.50;;;;;;;13.97;54.42;100704.30;110336;1257;23013;-82
2022/05/04 06:21:36;;;;;;;9.90;8.50;;;;;;;14.33;55.16;100710.83;110327;1257;22995;-83
2022/05/04 06:24:06;;;;;;;8.90;8.00;;;;;;;14.81;54.65;100710.48;110711;1257;22202;-83
2022/05/04 06:26:35;;;;;;;11.30;8.10;;;;;;;15.29;53.68;100709.73;110290;1257;22090;-82
2022/05/04 06:29:04;;;;;;;8.70;7.80;;;;;;;15.81;53.17;100710.16;110257;1257;23169;-83
2022/05/04 06:34:21;;;;;;;11.60;8.50;;;;;;;16.75;49.74;100713.49;109739;1262;22414;-82
2022/05/04 06:36:50;;;;;;;10.90;8.60;;;;;;;17.10;48.73;100717.88;109756;1262;23818;-82
2022/05/04 06:39:19;;;;;;;12.40;8.40;;;;;;;17.41;47.84;100717.37;109804;1261;22036;-80
2022/05/04 06:41:49;;;;;;;8.90;7.30;;;;;;;17.68;46.67;100717.51;110169;1257;23712;-79
2022/05/04 06:44:18;;;;;;;9.60;6.90;;;;;;;17.79;45.76;100712.20;109791;1262;23779;-80
2022/05/04 06:46:47;;;;;;;8.30;6.50;;;;;;;17.89;45.08;100715.35;109797;1263;21978;-81
2022/05/04 06:49:16;;;;;;;12.70;7.80;;;;;;;18.01;45.32;100711.02;109627;1260;259540;-79
2022/05/04 06:51:45;;;;;;;9.20;6.30;;;;;;;18.17;44.71;100714.63;109586;1263;21982;-79
2022/05/04 06:54:14;;;;;;;9.00;7.10;;;;;;;18.32;44.34;100713.81;110153;1260;23587;-80
2022/05/04 06:56:52;;;;;;;12.50;7.20;;;;;;;18.46;43.35;100713.06;110165;1255;21971;-80
2022/05/04 06:59:21;;;;;;;9.50;6.20;;;;;;;18.63;43.44;100710.78;110198;1256;23047;-79
2022/05/04 07:01:50;;;;;;;11.00;6.40;;;;;;;18.86;42.45;100708.52;110376;1251;23773;-80
2022/05/04 07:04:20;;;;;;;7.30;6.20;;;;;;;18.92;41.11;100709.85;110563;1251;21971;-81
2022/05/04 07:06:49;;;;;;;9.00;8.00;;;;;;;18.90;41.15;100704.64;110857;1251;21993;-81
2022/05/04 07:09:19;;;;;;;9.50;6.70;;;;;;;19.15;41.65;100711.05;110828;1251;21959;-77
2022/05/04 07:11:47;;;;;;;9.30;6.10;;;;;;;19.35;40.67;100714.38;110699;1251;23131;-77
2022/05/04 07:14:18;;;;;;;8.00;6.20;;;;;;;19.59;40.97;100713.27;110735;1251;23025;-78
2022/05/04 07:16:47;;;;;;;6.40;5.10;;;;;;;19.96;40.32;100719.50;110562;1251;22080;-77
2022/05/04 07:19:16;;;;;;;4.70;4.30;;;;;;;20.17;38.67;100716.98;110808;1251;22786;-78
2022/05/04 07:21:45;;;;;;;7.10;4.90;;;;;;;20.27;37.98;100717.44;110561;1251;21956;-77
2022/05/04 07:24:14;;;;;;;5.30;4.10;;;;;;;20.49;37.97;100718.86;110834;1251;21982;-77
2022/05/04 07:26:47;;;;;;;8.60;4.40;;;;;;;20.59;36.77;100719.10;110676;1251;22833;-77
2022/05/04 07:29:16;;;;;;;6.70;4.20;;;;;;;20.58;35.77;100718.23;110693;1251;22813;-77
2022/05/04 07:31:46;;;;;;;8.10;4.70;;;;;;;20.45;35.46;100719.31;110112;1258;22203;-77
2022/05/04 07:34:16;;;;;;;4.60;3.50;;;;;;;20.49;35.95;100722.17;110174;1257;22027;-77
2022/05/04 07:36:46;;;;;;;6.10;4.30;;;;;;;20.65;35.27;100726.09;110003;1257;23016;-77
2022/05/04 07:42:21;;;;;;;5.20;3.70;;;;;;;20.64;35.08;100719.73;110297;1257;23006;-77
2022/05/04 07:45:02;;;;;;;5.60;3.90;;;;;;;20.83;34.57;100722.15;110154;1257;22751;-78
2022/05/04 07:47:34;;;;;;;4.20;3.70;;;;;;;20.97;34.19;100723.23;110259;1257;23039;-77
2022/05/04 07:50:06;;;;;;;8.30;5.10;;;;;;;21.34;34.47;100727.15;110131;1257;23770;-76
2022/05/04 07:52:36;;;;;;;7.40;5.10;;;;;;;21.68;33.98;100733.92;110200;1257;23086;-77
2022/05/04 07:55:06;;;;;;;7.00;5.10;;;;;;;21.89;33.65;100733.65;110267;1257;23119;-76
2022/05/04 07:57:35;;;;;;;9.20;5.10;;;;;;;21.97;33.22;100736.78;110744;1250;22462;-77
2022/05/04 08:05:41;;;;;;;5.60;4.70;;;;;;;21.99;32.91;100737.63;110677;1251;23039;-77
2022/05/04 08:08:10;;;;;;;6.50;5.10;;;;;;;21.91;32.54;100735.73;110743;1250;23782;-77
2022/05/04 08:10:40;;;;;;;8.00;4.30;;;;;;;21.78;33.12;100734.93;110565;1251;23087;-76
2022/05/04 08:13:10;;;;;;;9.40;5.10;;;;;;;21.84;33.13;100738.58;110576;1251;21965;-77
2022/05/04 08:15:40;;;;;;;9.40;5.00;;;;;;;21.86;32.66;100735.19;110159;1257;23709;-77
2022/05/04 08:18:09;;;;;;;6.80;4.60;;;;;;;21.95;33.18;100736.36;110177;1257;22420;-78
2022/05/04 08:20:39;;;;;;;7.00;4.80;;;;;;;22.16;33.31;100737.70;109998;1257;22078;-78
2022/05/04 08:23:09;;;;;;;7.70;4.40;;;;;;;22.36;32.91;100739.18;110224;1257;22481;-78
2022/05/04 08:25:39;;;;;;;5.80;4.30;;;;;;;22.63;32.73;100738.85;110055;1257;23781;-79
2022/05/04 08:28:09;;;;;;;9.60;4.50;;;;;;;22.76;31.57;100739.04;110337;1257;22198;-77
2022/05/04 08:30:38;;;;;;;5.50;4.10;;;;;;;22.82;31.44;100735.06;110324;1257;24350;-77
2022/05/04 08:33:07;;;;;;;6.00;3.20;;;;;;;22.89;31.21;100738.60;110302;1253;21971;-77
2022/05/04 08:35:36;;;;;;;5.30;3.30;;;;;;;22.97;31.12;100741.42;111009;1250;21966;-77
2022/05/04 08:38:05;;;;;;;6.00;3.50;;;;;;;23.25;31.18;100740.98;110840;1250;23117;-78
2022/05/04 08:40:34;;;;;;;3.50;3.00;;;;;;;23.57;30.18;100737.85;110971;1250;23058;-77
2022/05/04 08:43:07;;;;;;;4.90;3.40;;;;;;;23.72;29.66;100740.71;110977;1250;21960;-79
2022/05/04 08:45:38;;;;;;;8.70;4.10;;;;;;;23.90;28.96;100740.23;110703;1250;21961;-78
2022/05/04 08:48:08;;;;;;;5.20;3.20;;;;;;;23.94;28.27;100744.67;110679;1251;23593;-77
2022/05/04 08:50:40;;;;;;;8.70;3.10;;;;;;;23.74;27.74;100740.64;110826;1250;23658;-77
2022/05/04 08:53:12;;;;;;;3.30;2.30;;;;;;;23.67;28.07;100740.89;110881;1250;24526;-77
2022/05/04 08:55:41;;;;;;;5.20;2.50;;;;;;;23.77;27.75;100744.68;110805;1250;21955;-77
2022/05/04 08:58:10;;;;;;;5.00;2.30;;;;;;;23.92;27.21;100741.14;110733;1250;22701;-77
2022/05/04 09:00:39;;;;;;;4.80;2.10;;;;;;;23.95;26.69;100743.89;110799;1250;22204;-77
2022/05/04 09:03:08;;;;;;;7.20;3.90;;;;;;;24.02;26.79;100739.40;110574;1251;21966;-77
2022/05/04 09:05:40;;;;;;;6.20;3.40;;;;;;;24.16;26.53;100740.23;110684;1250;22023;-77
2022/05/04 09:08:10;;;;;;;3.10;2.50;;;;;;;24.27;26.36;100745.54;110850;1250;21950;-77
2022/05/04 09:10:46;;;;;;;3.60;2.50;;;;;;;24.26;25.67;100738.94;110720;1251;21952;-76
2022/05/04 09:13:18;;;;;;;3.20;2.30;;;;;;;24.30;25.83;100740.81;110716;1251;22090;-77
2022/05/04 09:15:51;;;;;;;3.10;2.20;;;;;;;24.33;25.64;100738.17;110830;1250;21969;-76
2022/05/04 09:18:21;;;;;;;5.20;2.10;;;;;;;24.41;25.42;100737.11;110594;1251;21962;-76
2022/05/04 09:23:31;;;;;;;3.70;2.40;;;;;;;24.16;25.34;100734.21;110985;1250;21916;-81
2022/05/04 09:26:07;;;;;;;6.50;2.20;;;;;;;24.01;25.22;100732.53;110942;1250;23706;-81
2022/05/04 09:28:36;;;;;;;5.00;1.60;;;;;;;23.91;25.43;100733.23;110769;1252;25300;-81
2022/05/04 09:31:08;;;;;;;3.20;1.80;;;;;;;23.94;25.54;100726.66;110638;1250;23008;-81
2022/05/04 09:33:39;;;;;;;5.60;1.70;;;;;;;24.21;25.42;100726.66;110817;1250;24391;-85
2022/05/04 09:36:11;;;;;;;4.10;1.80;;;;;;;24.61;24.90;100720.40;110463;1257;22082;-81
2022/05/04 09:46:58;;;;;;;3.70;1.80;;;;;;;25.03;23.80;100722.81;110675;1255;22764;-79
2022/05/04 09:49:32;;;;;;;7.70;2.30;;;;;;;24.95;23.89;100725.77;110821;1256;22743;-80
2022/05/04 09:52:04;;;;;;;4.60;2.10;;;;;;;24.92;23.94;100722.10;110614;1256;21970;-79
2022/05/04 09:54:33;;;;;;;2.50;1.70;;;;;;;24.96;23.66;100721.02;110896;1249;24294;-79
2022/05/04 09:57:06;;;;;;;6.80;1.40;;;;;;;25.14;23.58;100721.16;110697;1249;22615;-80
2022/05/04 09:59:36;;;;;;;4.50;1.50;;;;;;;25.37;23.48;100721.43;110843;1250;21957;-80
2022/05/04 10:02:09;;;;;;;2.30;1.40;;;;;;;25.44;22.87;100723.44;110846;1249;22084;-79
2022/05/04 10:04:46;;;;;;;5.80;2.10;;;;;;;25.33;23.26;100720.21;111082;1249;23852;-81
2022/05/04 10:07:16;;;;;;;5.50;2.00;;;;;;;25.28;22.54;100719.25;110966;1250;22743;-80
2022/05/04 10:09:45;;;;;;;4.00;1.70;;;;;;;25.24;22.98;100719.00;110858;1249;22753;-81
2022/05/04 10:12:15;;;;;;;4.90;1.90;;;;;;;25.06;22.56;100713.56;110684;1251;22737;-79
2022/05/04 10:14:45;;;;;;;5.40;2.00;;;;;;;24.64;22.64;100714.12;110655;1249;21930;-78
2022/05/04 10:17:21;;;;;;;2.10;1.50;;;;;;;24.09;23.22;100712.94;110419;1256;22428;-80
2022/05/04 10:20:14;;;;;;;5.50;1.80;;;;;;;23.67;24.16;100707.98;110289;1257;21945;-80
2022/05/04 10:22:55;;;;;;;3.00;1.70;;;;;;;23.67;24.56;100707.50;110194;1258;22027;-78
2022/05/04 10:25:26;;;;;;;2.60;1.60;;;;;;;23.46;23.91;100704.45;110363;1257;22785;-79
2022/05/04 10:28:12;;;;;;;4.70;2.00;;;;;;;23.10;24.28;100706.33;110133;1257;21982;-80
2022/05/04 10:30:56;;;;;;;2.10;1.90;;;;;;;22.73;24.62;100703.89;110426;1255;23583;-78
2022/05/04 10:33:35;;;;;;;6.40;2.40;;;;;;;22.35;24.98;100704.34;109995;1259;23810;-79
2022/05/04 10:36:30;;;;;;;4.80;2.20;;;;;;;22.01;25.38;100706.15;110075;1261;21970;-79
2022/05/04 10:39:06;;;;;;;4.00;1.90;;;;;;;21.79;25.80;100703.38;109814;1260;23038;-80
2022/05/04 10:41:41;;;;;;;4.50;2.60;;;;;;;21.69;26.25;100706.77;109783;1256;24287;-79
2022/05/04 10:44:13;;;;;;;6.40;2.50;;;;;;;21.55;26.09;100701.38;109604;1263;23619;-78
2022/05/04 10:46:49;;;;;;;3.20;2.00;;;;;;;21.40;26.47;100695.73;109313;1263;21960;-78
2022/05/04 10:49:18;;;;;;;5.20;2.30;;;;;;;21.40;26.81;100696.53;109608;1261;23802;-78
2022/05/04 10:51:47;;;;;;;2.60;1.90;;;;;;;21.45;26.97;100692.84;109903;1258;21941;-80
2022/05/04 10:54:19;;;;;;;3.40;1.80;;;;;;;21.53;27.04;100690.69;110730;1258;21994;-79
2022/05/04 10:56:58;;;;;;;;;;;;;;;21.56;27.03;100690.86;110652;1257;22963;-80
2022/05/04 10:59:30;;;;;;;2.70;2.00;;;;;;;21.51;27.24;100692.01;110722;1257;21969;-81
2022/05/04 11:02:11;;;;;;;3.50;2.00;;;;;;;21.47;27.00;100689.14;110932;1249;21968;-82
2022/05/04 11:04:41;;;;;;;7.50;2.30;;;;;;;21.29;26.77;100681.41;110993;1251;21963;-78
2022/05/04 11:07:16;;;;;;;3.60;2.10;;;;;;;21.10;26.90;100682.31;110966;1249;21957;-80
2022/05/04 11:09:47;;;;;;;6.30;3.10;;;;;;;21.01;27.42;100676.66;110887;1249;22186;-80
2022/05/04 11:12:19;;;;;;;4.80;2.10;;;;;;;21.13;27.81;100678.27;110649;1256;21949;-79
2022/05/04 11:15:02;;;;;;;3.60;2.20;;;;;;;21.34;27.93;100676.23;110470;1256;22189;-79
2022/05/04 11:17:33;;;;;;;9.60;2.80;;;;;;;21.49;27.83;100677.77;110281;1257;21971;-79
2022/05/04 11:20:13;;;;;;;2.40;1.60;;;;;;;21.55;27.93;100676.11;110496;1256;22102;-80
2022/05/04 11:22:54;;;;;;;6.20;2.50;;;;;;;21.58;27.60;100679.57;110312;1261;21980;-82
2022/05/04 11:25:37;;;;;;;3.60;2.20;;;;;;;21.50;27.24;100683.09;110166;1261;21983;-85
2022/05/04 11:28:15;;;;;;;6.20;2.30;;;;;;;21.30;27.17;100677.45;110218;1261;21988;-83
2022/05/04 11:30:47;;;;;;;4.50;2.40;;;;;;;21.14;27.36;100675.23;109506;1267;23004;-84
2022/05/04 11:33:16;;;;;;;2.40;2.10;;;;;;;21.05;27.66;100677.35;109340;1267;23018;-78
2022/05/04 11:35:54;;;;;;;5.50;2.40;;;;;;;20.98;27.74;100674.19;109153;1267;22598;-78
2022/05/04 11:38:23;;;;;;;3.30;2.30;;;;;;;20.93;27.77;100669.84;109687;1262;23610;-77
2022/05/04 11:40:54;;;;;;;3.30;2.00;;;;;;;20.87;27.66;100669.89;110128;1256;22016;-76
2022/05/04 11:43:34;;;;;;;3.80;2.10;;;;;;;20.80;27.98;100668.45;110356;1256;22810;-77
2022/05/04 11:46:09;;;;;;;4.90;2.10;;;;;;;20.84;28.26;100671.33;110514;1256;21980;-77
2022/05/04 11:48:42;;;;;;;4.60;2.60;;;;;;;20.89;28.15;100670.42;110653;1249;23034;-78
2022/05/04 11:51:15;;;;;;;5.20;2.50;;;;;;;21.00;27.82;100666.80;110782;1249;23820;-77
2022/05/04 11:53:45;;;;;;;6.00;2.80;;;;;;;21.04;27.68;100667.59;110282;1257;22325;-77
2022/05/04 11:56:14;;;;;;;10.70;3.40;;;;;;;21.06;27.47;100669.84;110350;1257;23587;-76
2022/05/04 11:58:43;;;;;;;2.50;2.00;;;;;;;20.96;27.34;100667.93;110102;1257;22114;-77
2022/05/04 12:01:13;;;;;;;4.40;3.50;;;;;;;20.88;27.71;100667.17;109997;1257;22197;-75
2022/05/04 12:03:42;;;;;;;8.60;3.60;;;;;;;20.93;28.34;100661.73;110042;1257;22122;-77